createdAt,value
2023-11-17T00:01:41.265Z,6.73
2023-11-17T00:04:44.738Z,6.88
2023-11-17T00:07:48.265Z,7.30
2023-11-17T00:10:51.591Z,7.40
2023-11-17T00:13:56.163Z,7.28
2023-11-17T00:17:02.583Z,7.50
2023-11-17T00:20:07.767Z,8.15
2023-11-17T00:23:11.283Z,7.15
2023-11-17T00:26:17.785Z,7.95
2023-11-17T00:29:34.015Z,6.90
2023-11-17T00:32:41.578Z,7.67
2023-11-17T00:35:48.542Z,7.55
2023-11-17T00:38:53.525Z,7.45
2023-11-17T00:42:02.429Z,7.63
2023-11-17T00:45:09.193Z,6.75
2023-11-17T00:48:12.733Z,6.80
2023-11-17T00:51:20.218Z,6.22
2023-11-17T00:54:27.872Z,6.50
2023-11-17T00:57:33.538Z,6.60
2023-11-17T01:00:37.021Z,6.50
2023-11-17T01:03:41.479Z,6.77
2023-11-17T01:06:45.119Z,6.57
2023-11-17T01:09:48.596Z,7.13
2023-11-17T01:12:53.534Z,5.75
2023-11-17T01:15:57.171Z,6.95
2023-11-17T01:19:00.609Z,7.40
2023-11-17T01:22:04.502Z,7.32
2023-11-17T01:25:08.629Z,6.60
2023-11-17T01:28:12.054Z,6.95
2023-11-17T01:31:16.396Z,6.25
2023-11-17T01:34:20.247Z,6.37
2023-11-17T01:37:23.715Z,6.68
2023-11-17T01:40:28.741Z,5.43
2023-11-17T01:43:32.140Z,5.68
2023-11-17T01:46:35.872Z,6.18
2023-11-17T01:49:39.677Z,6.10
2023-11-17T01:52:48.297Z,5.53
2023-11-17T01:55:51.788Z,5.38
2023-11-17T01:58:55.605Z,5.30
2023-11-17T02:01:59.084Z,5.40
2023-11-17T02:05:04.798Z,4.80
2023-11-17T02:08:38.143Z,5.03
2023-11-17T02:12:05.348Z,4.55
2023-11-17T02:15:12.330Z,3.75
2023-11-17T02:18:17.189Z,4.50
2023-11-17T02:21:30.311Z,3.23
2023-11-17T02:24:43.452Z,4.13
2023-11-17T02:28:09.050Z,4.25
2023-11-17T02:31:20.227Z,4.55
2023-11-17T02:34:26.602Z,4.13
2023-11-17T02:37:32.326Z,4.20
2023-11-17T02:40:39.566Z,3.78
2023-11-17T02:43:43.604Z,3.75
2023-11-17T02:46:47.232Z,3.58
2023-11-17T02:50:02.256Z,4.35
2023-11-17T02:53:19.958Z,4.10
2023-11-17T02:56:25.283Z,3.97
2023-11-17T02:59:31.492Z,3.83
2023-11-17T03:02:35.010Z,3.70
2023-11-17T03:05:41.438Z,4.10
2023-11-17T03:08:44.837Z,3.00
2023-11-17T03:11:49.846Z,3.40
2023-11-17T03:14:54.705Z,3.83
2023-11-17T03:18:10.661Z,3.20
2023-11-17T03:21:14.261Z,3.90
2023-11-17T03:24:24.544Z,3.80
2023-11-17T03:27:27.960Z,3.35
2023-11-17T03:30:31.335Z,3.70
2023-11-17T03:33:37.235Z,3.22
2023-11-17T03:36:45.402Z,3.85
2023-11-17T03:39:49.300Z,3.37
2023-11-17T03:42:57.849Z,3.28
2023-11-17T03:46:05.297Z,2.97
2023-11-17T03:49:13.216Z,3.63
2023-11-17T03:52:23.085Z,3.47
2023-11-17T03:55:26.645Z,3.30
2023-11-17T03:58:30.048Z,3.45
2023-11-17T04:01:35.421Z,2.90
2023-11-17T04:04:39.032Z,2.95
2023-11-17T04:07:44.118Z,3.35
2023-11-17T04:10:47.565Z,3.53
2023-11-17T04:13:50.948Z,2.95
2023-11-17T04:16:55.246Z,3.28
2023-11-17T04:19:58.713Z,2.95
2023-11-17T04:23:02.095Z,4.15
2023-11-17T04:26:06.998Z,3.60
2023-11-17T04:29:10.453Z,3.33
2023-11-17T04:32:13.817Z,3.05
2023-11-17T04:35:17.283Z,3.28
2023-11-17T04:38:20.670Z,2.75
2023-11-17T04:41:24.756Z,2.40
2023-11-17T04:44:28.332Z,2.95
2023-11-17T04:47:33.057Z,3.40
2023-11-17T04:50:36.689Z,2.97
2023-11-17T04:53:40.186Z,3.25
2023-11-17T04:56:43.995Z,3.27
2023-11-17T04:59:50.824Z,3.35
2023-11-17T05:02:59.139Z,3.90
2023-11-17T05:06:02.533Z,3.25
2023-11-17T05:09:15.437Z,3.47
2023-11-17T05:12:20.105Z,2.97
2023-11-17T05:15:23.956Z,3.70
2023-11-17T05:18:27.452Z,3.83
2023-11-17T05:21:32.047Z,3.75
2023-11-17T05:24:35.402Z,3.67
2023-11-17T05:27:39.251Z,3.60
2023-11-17T05:30:45.677Z,3.13
2023-11-17T05:33:49.237Z,3.65
2023-11-17T05:36:56.064Z,3.30
2023-11-17T05:39:59.556Z,3.45
2023-11-17T05:43:07.606Z,3.57
2023-11-17T05:46:12.018Z,3.58
2023-11-17T05:49:16.590Z,3.53
2023-11-17T05:52:20.173Z,3.47
2023-11-17T05:55:24.648Z,3.78
2023-11-17T05:58:28.658Z,3.20
2023-11-17T06:01:32.149Z,3.50
2023-11-17T06:04:36.063Z,4.25
2023-11-17T06:07:39.497Z,3.20
2023-11-17T06:10:43.212Z,4.25
2023-11-17T06:13:46.968Z,4.17
2023-11-17T06:16:54.564Z,3.25
2023-11-17T06:20:02.195Z,4.10
2023-11-17T06:23:06.176Z,4.90
2023-11-17T06:26:09.939Z,4.28
2023-11-17T06:29:17.351Z,4.50
2023-11-17T06:32:20.811Z,3.45
2023-11-17T06:35:24.166Z,4.43
2023-11-17T06:38:27.701Z,4.15
2023-11-17T06:41:32.023Z,4.72
2023-11-17T06:44:36.059Z,4.53
2023-11-17T06:47:42.027Z,4.82
2023-11-17T06:50:45.610Z,4.68
2023-11-17T06:53:49.470Z,4.60
2023-11-17T06:56:53.267Z,4.75
2023-11-17T06:59:56.785Z,4.97
2023-11-17T07:03:02.194Z,4.43
2023-11-17T07:06:05.905Z,4.63
2023-11-17T07:09:24.795Z,4.80
2023-11-17T07:12:29.176Z,5.07
2023-11-17T07:15:34.774Z,5.17
2023-11-17T07:18:38.269Z,4.85
2023-11-17T07:21:43.354Z,4.68
2023-11-17T07:24:46.714Z,5.38
2023-11-17T07:27:50.636Z,5.25
2023-11-17T07:30:55.644Z,4.70
2023-11-17T07:33:59.175Z,4.00
2023-11-17T07:37:04.662Z,4.57
2023-11-17T07:40:11.372Z,4.28
2023-11-17T07:43:15.007Z,4.55
2023-11-17T07:46:18.989Z,4.23
2023-11-17T07:49:26.838Z,5.05
2023-11-17T07:52:31.514Z,4.15
2023-11-17T07:55:35.445Z,4.90
2023-11-17T07:58:39.323Z,4.63
2023-11-17T08:01:42.745Z,9.73
2023-11-17T08:04:47.383Z,6.13
2023-11-17T08:07:51.196Z,5.00
2023-11-17T08:10:54.952Z,8.75
2023-11-17T08:13:59.103Z,6.57
2023-11-17T08:17:02.819Z,4.97
2023-11-17T08:20:11.841Z,4.47
2023-11-17T08:23:20.634Z,4.50
2023-11-17T08:26:24.301Z,4.57
2023-11-17T08:29:31.157Z,7.00
2023-11-17T08:32:38.203Z,12.73
2023-11-17T08:35:42.746Z,8.25
2023-11-17T08:38:46.407Z,9.32
2023-11-17T08:41:49.793Z,7.03
2023-11-17T08:44:58.832Z,4.38
2023-11-17T08:48:04.817Z,4.40
2023-11-17T08:51:08.638Z,3.95
2023-11-17T08:54:12.464Z,4.40
2023-11-17T08:57:18.426Z,4.15
2023-11-17T09:00:27.720Z,4.75
2023-11-17T09:03:32.221Z,4.37
2023-11-17T09:06:36.951Z,4.13
2023-11-17T09:09:42.435Z,4.10
2023-11-17T09:12:48.795Z,5.10
2023-11-17T09:15:54.425Z,5.00
2023-11-17T09:19:00.802Z,4.73
2023-11-17T09:22:07.664Z,3.97
2023-11-17T09:25:15.435Z,4.07
2023-11-17T09:28:18.989Z,4.78
2023-11-17T09:31:24.887Z,4.60
2023-11-17T09:34:28.902Z,4.63
2023-11-17T09:37:36.913Z,3.67
2023-11-17T09:40:41.721Z,4.78
2023-11-17T09:43:48.973Z,4.72
2023-11-17T09:46:58.447Z,4.47
2023-11-17T09:50:10.859Z,4.50
2023-11-17T09:53:18.710Z,5.25
2023-11-17T09:56:25.671Z,4.32
2023-11-17T09:59:36.991Z,4.38
2023-11-17T10:02:46.053Z,4.80
2023-11-17T10:05:51.028Z,3.83
2023-11-17T10:08:54.807Z,4.97
2023-11-17T10:11:58.930Z,5.80
2023-11-17T10:15:07.694Z,11.23
2023-11-17T10:18:13.971Z,13.45
2023-11-17T10:21:20.541Z,5.90
2023-11-17T10:24:24.334Z,4.32
2023-11-17T10:27:29.052Z,4.60
2023-11-17T10:30:43.104Z,4.43
2023-11-17T10:33:47.324Z,4.68
2023-11-17T10:36:57.971Z,4.50
2023-11-17T10:40:08.015Z,4.57
2023-11-17T10:43:53.770Z,4.95
2023-11-17T10:46:57.214Z,4.50
2023-11-17T10:50:10.368Z,3.88
2023-11-17T10:53:15.834Z,4.57
2023-11-17T10:56:25.582Z,4.40
2023-11-17T10:59:44.743Z,4.15
2023-11-17T11:02:55.953Z,4.30
2023-11-17T11:06:01.021Z,4.95
2023-11-17T11:09:09.733Z,4.20
2023-11-17T11:12:16.217Z,4.40
2023-11-17T11:15:21.301Z,5.35
2023-11-17T11:18:24.780Z,4.45
2023-11-17T11:21:30.959Z,4.22
2023-11-17T11:24:38.641Z,5.03
2023-11-17T11:27:45.141Z,4.47
2023-11-17T11:30:50.654Z,5.22
2023-11-17T11:33:54.229Z,10.48
2023-11-17T11:36:58.190Z,7.15
2023-11-17T11:40:02.676Z,5.47
2023-11-17T11:43:06.426Z,5.22
2023-11-17T11:46:11.776Z,6.15
2023-11-17T11:49:17.461Z,10.70
2023-11-17T11:52:28.189Z,8.45
2023-11-17T11:55:32.027Z,10.27
2023-11-17T11:58:45.349Z,6.22
2023-11-17T12:01:50.724Z,5.75
2023-11-17T12:04:54.950Z,6.65
2023-11-17T12:07:58.953Z,4.93
2023-11-17T12:11:13.703Z,4.67
2023-11-17T12:14:19.700Z,4.50
2023-11-17T12:17:28.012Z,5.18
2023-11-17T12:20:32.187Z,5.32
2023-11-17T12:23:59.934Z,5.20
2023-11-17T12:27:06.467Z,5.10
2023-11-17T12:30:14.441Z,5.05
2023-11-17T12:33:18.470Z,4.50
2023-11-17T12:36:24.458Z,4.63
2023-11-17T12:39:41.717Z,5.50
2023-11-17T12:42:46.337Z,6.77
2023-11-17T12:45:50.885Z,8.38
2023-11-17T12:48:55.295Z,6.07
2023-11-17T12:52:08.710Z,5.57
2023-11-17T12:55:12.552Z,6.10
2023-11-17T12:58:16.530Z,5.67
2023-11-17T13:01:21.203Z,6.45
2023-11-17T13:04:26.949Z,7.03
2023-11-17T13:07:30.567Z,6.80
2023-11-17T13:10:35.210Z,5.90
2023-11-17T13:13:39.921Z,5.10
2023-11-17T13:16:43.691Z,6.45
2023-11-17T13:19:47.434Z,5.90
2023-11-17T13:22:52.537Z,6.03
2023-11-17T13:26:09.742Z,5.68
2023-11-17T13:29:13.708Z,4.73
2023-11-17T13:32:19.924Z,4.68
2023-11-17T13:35:29.117Z,6.05
2023-11-17T13:38:33.649Z,5.45
2023-11-17T13:41:38.450Z,5.38
2023-11-17T13:44:45.344Z,5.93
2023-11-17T13:48:13.012Z,5.57
2023-11-17T13:51:22.354Z,5.15
2023-11-17T13:54:29.476Z,5.47
2023-11-17T13:57:33.075Z,4.53
2023-11-17T14:00:36.770Z,5.00
2023-11-17T14:03:40.416Z,5.47
2023-11-17T14:06:43.863Z,4.30
2023-11-17T14:09:47.273Z,5.00
2023-11-17T14:12:51.039Z,4.75
2023-11-17T14:15:58.950Z,4.73
2023-11-17T14:19:02.922Z,5.60
2023-11-17T14:22:06.677Z,4.38
2023-11-17T14:25:12.138Z,6.00
2023-11-17T14:28:18.464Z,4.97
2023-11-17T14:31:22.954Z,4.90
2023-11-17T14:34:28.200Z,5.55
2023-11-17T14:37:31.939Z,6.30
2023-11-17T14:40:35.632Z,6.00
2023-11-17T14:43:39.071Z,6.30
2023-11-17T14:46:42.699Z,5.97
2023-11-17T14:49:46.497Z,6.97
2023-11-17T14:52:49.974Z,5.32
2023-11-17T14:55:53.536Z,6.00
2023-11-17T14:58:59.868Z,6.47
2023-11-17T15:02:04.643Z,6.23
2023-11-17T15:05:10.505Z,6.18
2023-11-17T15:08:14.861Z,6.18
2023-11-17T15:11:22.404Z,5.88
2023-11-17T15:14:28.008Z,5.75
2023-11-17T15:17:31.577Z,5.50
2023-11-17T15:20:38.179Z,6.53
2023-11-17T15:23:42.038Z,5.90
2023-11-17T15:26:45.413Z,5.97
2023-11-17T15:29:49.079Z,6.40
2023-11-17T15:32:54.138Z,4.70
2023-11-17T15:35:58.541Z,5.07
2023-11-17T15:39:02.194Z,5.68
2023-11-17T15:42:05.864Z,6.53
2023-11-17T15:45:13.035Z,5.88
2023-11-17T15:48:16.647Z,5.63
2023-11-17T15:51:20.764Z,5.63
2023-11-17T15:54:24.438Z,5.57
2023-11-17T15:57:27.826Z,5.80
2023-11-17T16:00:33.436Z,5.70
2023-11-17T16:03:39.408Z,5.40
2023-11-17T16:06:47.554Z,6.40
2023-11-17T16:09:52.337Z,6.45
2023-11-17T16:12:58.179Z,6.20
2023-11-17T16:16:01.881Z,6.80
2023-11-17T16:19:05.369Z,7.23
2023-11-17T16:22:11.939Z,7.78
2023-11-17T16:25:16.642Z,8.40
2023-11-17T16:28:20.296Z,7.65
2023-11-17T16:31:24.042Z,6.45
2023-11-17T16:34:28.125Z,7.77
2023-11-17T16:37:38.341Z,6.82
2023-11-17T16:40:42.037Z,8.10
2023-11-17T16:43:45.449Z,7.68
2023-11-17T16:46:52.089Z,7.70
2023-11-17T16:49:56.145Z,8.60
2023-11-17T16:52:59.634Z,7.60
2023-11-17T16:56:03.814Z,8.27
2023-11-17T16:59:08.255Z,11.00
2023-11-17T17:02:15.199Z,9.02
2023-11-17T17:05:19.141Z,16.13
2023-11-17T17:08:27.267Z,14.30
2023-11-17T17:11:31.671Z,8.85
2023-11-17T17:14:36.814Z,7.90
2023-11-17T17:17:40.250Z,8.63
2023-11-17T17:20:44.262Z,13.80
2023-11-17T17:23:47.641Z,13.38
2023-11-17T17:26:54.209Z,13.65
2023-11-17T17:29:57.926Z,12.13
2023-11-17T17:33:04.777Z,13.23
2023-11-17T17:36:08.690Z,13.07
2023-11-17T17:39:17.891Z,11.30
2023-11-17T17:42:22.022Z,11.40
2023-11-17T17:45:28.272Z,10.18
2023-11-17T17:48:31.801Z,10.52
2023-11-17T17:51:35.712Z,9.30
2023-11-17T17:54:39.233Z,9.73
2023-11-17T17:57:43.931Z,9.35
2023-11-17T18:00:47.423Z,11.77
2023-11-17T18:03:51.124Z,14.90
2023-11-17T18:06:54.668Z,18.67
2023-11-17T18:09:58.504Z,21.08
2023-11-17T18:13:02.334Z,11.15
2023-11-17T18:16:06.914Z,11.38
2023-11-17T18:19:13.731Z,9.48
2023-11-17T18:22:17.321Z,7.50
2023-11-17T18:25:22.406Z,6.90
2023-11-17T18:28:26.322Z,7.78
2023-11-17T18:31:30.222Z,7.57
2023-11-17T18:34:33.742Z,8.50
2023-11-17T18:37:38.123Z,6.47
2023-11-17T18:40:41.933Z,7.00
2023-11-17T18:43:45.407Z,6.15
2023-11-17T18:46:49.004Z,6.30
2023-11-17T18:49:53.437Z,5.80
2023-11-17T18:52:57.199Z,5.13
2023-11-17T18:56:06.762Z,5.47
2023-11-17T18:59:10.357Z,5.30
2023-11-17T19:02:14.021Z,5.30
2023-11-17T19:05:19.899Z,5.22
2023-11-17T19:08:24.106Z,4.03
2023-11-17T19:11:27.834Z,4.38
2023-11-17T19:14:32.098Z,4.30
2023-11-17T19:17:36.085Z,4.28
2023-11-17T19:20:39.917Z,5.60
2023-11-17T19:23:44.033Z,4.33
2023-11-17T19:27:06.879Z,4.68
2023-11-17T19:30:15.145Z,2.80
2023-11-17T19:33:21.559Z,2.97
2023-11-17T19:36:25.629Z,2.92
2023-11-17T19:39:29.585Z,3.00
2023-11-17T19:42:40.118Z,3.20
2023-11-17T19:45:44.556Z,2.83
2023-11-17T19:48:47.967Z,2.88
2023-11-17T19:51:52.629Z,2.80
2023-11-17T19:54:56.379Z,3.10
2023-11-17T19:57:59.789Z,2.83
2023-11-17T20:01:05.133Z,2.38
2023-11-17T20:04:11.577Z,1.83
2023-11-17T20:07:16.778Z,1.80
2023-11-17T20:10:20.782Z,1.90
2023-11-17T20:13:26.190Z,1.80
2023-11-17T20:16:34.880Z,1.95
2023-11-17T20:19:40.332Z,1.60
2023-11-17T20:22:45.146Z,1.83
2023-11-17T20:25:48.692Z,1.67
2023-11-17T20:28:52.101Z,1.40
2023-11-17T20:31:55.956Z,1.20
2023-11-17T20:34:59.671Z,1.10
2023-11-17T20:38:05.245Z,1.35
2023-11-17T20:41:10.731Z,1.17
2023-11-17T20:44:14.759Z,1.63
2023-11-17T20:47:18.526Z,1.42
2023-11-17T20:50:26.710Z,1.35
2023-11-17T20:53:31.483Z,1.55
2023-11-17T20:56:35.585Z,1.53
2023-11-17T20:59:41.719Z,1.33
2023-11-17T21:02:45.334Z,1.75
2023-11-17T21:05:49.812Z,1.55
2023-11-17T21:08:53.559Z,2.00
2023-11-17T21:11:58.856Z,1.83
2023-11-17T21:15:02.271Z,1.98
2023-11-17T21:18:09.177Z,2.13
2023-11-17T21:21:12.859Z,2.35
2023-11-17T21:24:25.371Z,2.40
2023-11-17T21:27:31.420Z,2.67
2023-11-17T21:30:35.100Z,2.35
2023-11-17T21:33:39.480Z,2.25
2023-11-17T21:36:43.134Z,2.42
2023-11-17T21:39:46.543Z,2.20
2023-11-17T21:42:50.887Z,1.97
2023-11-17T21:45:54.812Z,1.92
2023-11-17T21:48:58.705Z,1.80
2023-11-17T21:52:02.112Z,1.45
2023-11-17T21:55:06.628Z,1.50
2023-11-17T21:58:10.144Z,1.83
2023-11-17T22:01:15.509Z,1.20
2023-11-17T22:04:18.985Z,1.67
2023-11-17T22:07:22.396Z,1.80
2023-11-17T22:10:25.844Z,1.70
2023-11-17T22:13:29.264Z,1.63
2023-11-17T22:16:32.733Z,1.60
2023-11-17T22:19:36.263Z,1.60
2023-11-17T22:22:43.600Z,2.25
2023-11-17T22:25:47.473Z,1.80
2023-11-17T22:28:50.872Z,1.70
2023-11-17T22:31:54.370Z,1.20
2023-11-17T22:34:57.814Z,1.20
2023-11-17T22:38:01.789Z,1.77
2023-11-17T22:41:05.577Z,1.60
2023-11-17T22:44:09.074Z,1.40
2023-11-17T22:47:12.540Z,1.80
2023-11-17T22:50:17.655Z,1.20
2023-11-17T22:53:21.660Z,1.50
2023-11-17T22:56:24.988Z,1.58
2023-11-17T22:59:28.567Z,2.03
2023-11-17T23:02:32.086Z,1.67
2023-11-17T23:05:43.554Z,1.83
2023-11-17T23:08:47.885Z,1.77
2023-11-17T23:11:51.338Z,1.75
2023-11-17T23:14:56.292Z,1.67
2023-11-17T23:17:59.854Z,2.03
2023-11-17T23:21:06.639Z,2.00
2023-11-17T23:24:11.718Z,1.90
2023-11-17T23:27:16.197Z,1.65
2023-11-17T23:30:20.835Z,1.63
2023-11-17T23:33:24.412Z,1.80
2023-11-17T23:36:27.835Z,1.80
2023-11-17T23:39:31.574Z,1.58
2023-11-17T23:42:34.967Z,2.40
2023-11-17T23:45:38.566Z,1.70
2023-11-17T23:48:42.242Z,2.55
2023-11-17T23:51:46.474Z,2.67
2023-11-17T23:54:49.798Z,2.38
2023-11-17T23:57:54.235Z,2.35
